Guatemala, Guatemala

2:23 PM CST on February 08, 2016 (GMT -0600)
La Aurora International | | Change Station
CLOSE
Current Station
Airport
Location: Guatemala,
Elevation: 4885 ft
Nearby Weather Stations

Elev 4885 ft 14.58 °N, 90.53 °W | Updated 23 minutes ago

Clear
Clear
70 °F
Feels Like 70 °F
N
21
Wind Variable Wind from North

Today
High -- | Low -- °F
--% Chance of Precip.
Yesterday
High -- | Low -- °F
Precip. -- in
Pressure 30.27 in
Visibility -9999.0 miles
Clouds
Dew Point 50 °F
Humidity 49%
Rainfall 0.00 in
Snow Depth Not available.
6:28 AM 6:03 PM
New Moon, 0% visible
METAR MGGT 082000Z 36018KT CAVOK 21/10 Q1025 A3027 SCT200
Pressure 30.27 in
Visibility -9999.0 miles
Clouds
Dew Point 50 °F
Humidity 49%
Rainfall 0.00 in
Snow Depth Not available.
6:28 AM 6:03 PM
New Moon, 0% visible
METAR MGGT 082000Z 36018KT CAVOK 21/10 Q1025 A3027 SCT200

10-Day Weather Forecast

No radar image for this location.
×

Almanac

Astronomy

Feb. 08, 2016 Rise Set
Actual Time
Civil Twilight
Nautical Twilight
Astronomical Twilight
Moon
Length of Visible Light
Length of Day
Tomorrow will be .
, % of the Moon is Illuminated

Today's Extremes

Country Highs Country Lows

Community

WunderPhotos

Upload Photos

1,891,503 photos uploaded!

WunderBlog® & News

Nearby

Air Quality

  Air Quality AQ Index Pollutant
Not available.

Snow Depth

Station Depth Elevation

Earthquake Activity

City Distance Mag. Time & Date
Minimum magnitude displayed is 2.5.

Coastal Water Temperatures

Place Temperature

Stations

Nearby Weather Stations

Station Location Temp. Windchill Dew Point Humidity Wind Precip. Elev Updated Type